Time;durP1;ratioP1;P1;durP2;ratioP2;P2;SDS_P1;SDS_P2;PMS_P1;PMS_P2;Temp;Humidity;BMP_temperature;BMP_pressure;BME280_temperature;BME280_humidity;BME280_pressure;Samples;Min_cycle;Max_cycle;Signal;HPM_P1;HPM_P2
2021/08/25 00:01:42;;;;;;;14.60;5.70;;;;;;;-145.18;100.00;60484.78;5072802;28;20035;-65
2021/08/25 00:04:08;;;;;;;10.30;5.23;;;;;;;-145.18;100.00;60484.78;5073088;28;20051;-65
2021/08/25 00:06:33;;;;;;;12.00;5.47;;;;;;;-145.18;100.00;60484.78;5070832;28;20028;-65
2021/08/25 00:08:59;;;;;;;11.03;5.90;;;;;;;-145.18;100.00;60484.78;5082398;28;20028;-65
2021/08/25 00:11:24;;;;;;;11.63;6.03;;;;;;;-145.18;100.00;60484.78;5078277;28;20028;-65
2021/08/25 00:13:50;;;;;;;13.70;6.60;;;;;;;-145.18;100.00;60484.78;5080189;28;20035;-65
2021/08/25 00:16:17;;;;;;;12.70;5.83;;;;;;;-145.18;100.00;60484.78;5077877;28;20466;-65
2021/08/25 00:18:43;;;;;;;13.13;5.60;;;;;;;-145.18;100.00;60484.78;5081701;28;20037;-65
2021/08/25 00:21:08;;;;;;;10.73;5.93;;;;;;;-145.18;100.00;60484.78;5080269;28;20280;-65
2021/08/25 00:23:34;;;;;;;14.83;6.27;;;;;;;-145.18;100.00;60484.78;5076584;28;20421;-65
2021/08/25 00:25:59;;;;;;;13.57;6.03;;;;;;;-145.18;100.00;60484.78;5072596;28;20099;-65
2021/08/25 00:28:25;;;;;;;15.40;6.80;;;;;;;-145.18;100.00;60484.78;5076657;28;20020;-65
2021/08/25 00:30:51;;;;;;;14.83;6.50;;;;;;;-145.18;100.00;60484.78;5077317;28;20514;-65
2021/08/25 00:33:22;;;;;;;12.97;6.40;;;;;;;-145.18;100.00;60484.78;5073959;28;20028;-65
2021/08/25 00:35:47;;;;;;;14.70;6.47;;;;;;;-145.18;100.00;60484.78;5076550;28;20173;-65
2021/08/25 00:38:13;;;;;;;14.90;6.10;;;;;;;-145.18;100.00;60484.78;5077794;28;20173;-65
2021/08/25 00:40:38;;;;;;;16.43;6.67;;;;;;;-145.18;100.00;60484.78;5077385;28;20231;-65
2021/08/25 00:43:10;;;;;;;17.63;7.33;;;;;;;-145.18;100.00;60484.78;5080231;28;20038;-65
2021/08/25 00:45:43;;;;;;;11.70;6.37;;;;;;;-145.18;100.00;60484.78;5072671;28;20111;-65
2021/08/25 00:48:12;;;;;;;15.50;6.93;;;;;;;-145.18;100.00;60484.78;5076424;28;20029;-65
2021/08/25 00:50:38;;;;;;;14.20;6.50;;;;;;;-145.18;100.00;60484.78;5081588;28;20024;-65
2021/08/25 00:53:06;;;;;;;17.33;7.43;;;;;;;-145.18;100.00;60484.78;5080971;28;20032;-65
2021/08/25 00:55:38;;;;;;;14.33;7.30;;;;;;;-145.18;100.00;60484.78;5079525;28;20047;-65
2021/08/25 00:58:04;;;;;;;19.70;8.27;;;;;;;-145.18;100.00;60484.78;5078605;28;20031;-65
2021/08/25 01:00:29;;;;;;;23.67;8.10;;;;;;;-145.18;100.00;60484.78;5080327;28;20056;-65
2021/08/25 01:03:27;;;;;;;26.33;8.30;;;;;;;-145.18;100.00;60484.78;5074318;28;20711;-65
2021/08/25 01:05:56;;;;;;;17.03;7.53;;;;;;;-145.18;100.00;60484.78;5077852;28;20028;-65
2021/08/25 01:08:22;;;;;;;16.20;7.60;;;;;;;-145.18;100.00;60484.78;5081650;28;20032;-65
2021/08/25 01:10:48;;;;;;;18.90;7.33;;;;;;;-145.18;100.00;60484.78;5072005;28;20095;-65
2021/08/25 01:13:14;;;;;;;16.67;8.10;;;;;;;-145.18;100.00;60484.78;5080550;28;20107;-65
2021/08/25 01:15:42;;;;;;;16.10;7.37;;;;;;;-145.18;100.00;60484.78;5084317;28;20366;-65
2021/08/25 01:18:14;;;;;;;16.77;7.50;;;;;;;-145.18;100.00;60484.78;5079853;28;20028;-65
2021/08/25 01:20:45;;;;;;;20.00;7.70;;;;;;;-145.18;100.00;60484.78;5084153;28;20119;-65
2021/08/25 01:23:12;;;;;;;19.25;7.93;;;;;;;-145.18;100.00;60484.78;5079768;28;20146;-65
2021/08/25 01:25:38;;;;;;;17.20;7.47;;;;;;;-145.18;100.00;60484.78;5080357;28;20110;-65
2021/08/25 01:28:06;;;;;;;20.07;7.60;;;;;;;-145.18;100.00;60484.78;5083286;28;20116;-65
2021/08/25 01:30:40;;;;;;;16.63;7.30;;;;;;;-145.18;100.00;60484.78;5084324;28;20020;-65
2021/08/25 01:33:06;;;;;;;17.63;8.03;;;;;;;-145.18;100.00;60484.78;5078805;28;20039;-65
2021/08/25 01:35:40;;;;;;;14.37;6.67;;;;;;;-145.18;100.00;60484.78;5084487;28;20024;-65
2021/08/25 01:38:06;;;;;;;23.10;7.80;;;;;;;-145.18;100.00;60484.78;5085234;28;20042;-65
2021/08/25 01:40:33;;;;;;;18.00;7.87;;;;;;;-145.18;100.00;60484.78;5081968;28;20552;-65
2021/08/25 01:42:59;;;;;;;19.07;7.63;;;;;;;-145.18;100.00;60484.78;5078790;28;20020;-65
2021/08/25 01:45:25;;;;;;;17.07;8.17;;;;;;;-145.18;100.00;60484.78;5080378;28;20032;-65
2021/08/25 01:47:51;;;;;;;25.17;8.90;;;;;;;-145.18;100.00;60484.78;5082713;28;20023;-65
2021/08/25 01:50:16;;;;;;;21.17;9.47;;;;;;;-145.18;100.00;60484.78;5084987;28;20032;-65
2021/08/25 01:52:42;;;;;;;20.57;8.40;;;;;;;-145.18;100.00;60484.78;5084962;28;20111;-65
2021/08/25 01:55:07;;;;;;;26.30;9.57;;;;;;;-145.18;100.00;60484.78;5084688;28;20051;-65
2021/08/25 01:57:33;;;;;;;23.03;9.27;;;;;;;-145.18;100.00;60484.78;5084679;28;20039;-65
2021/08/25 01:59:59;;;;;;;28.93;9.23;;;;;;;-145.18;100.00;60484.78;5085247;28;20028;-66
2021/08/25 02:02:24;;;;;;;20.30;10.00;;;;;;;-145.18;100.00;60484.78;5080067;28;20028;-65
2021/08/25 02:04:49;;;;;;;20.43;9.67;;;;;;;-145.18;100.00;60484.78;5071852;28;20024;-65
2021/08/25 02:07:15;;;;;;;24.53;9.60;;;;;;;-145.18;100.00;60484.78;5073982;28;20056;-65
2021/08/25 02:09:40;;;;;;;23.33;9.47;;;;;;;-145.18;100.00;60484.78;5081059;28;20020;-65
2021/08/25 02:12:06;;;;;;;23.30;9.93;;;;;;;-145.18;100.00;60484.78;5084317;28;20031;-65
2021/08/25 02:14:33;;;;;;;21.63;7.67;;;;;;;-145.18;100.00;60484.78;5080535;28;20649;-65
2021/08/25 02:16:58;;;;;;;19.60;9.30;;;;;;;-145.18;100.00;60484.78;5082620;28;20028;-65
2021/08/25 02:19:24;;;;;;;18.50;8.97;;;;;;;-145.18;100.00;60484.78;5082571;28;20520;-65
2021/08/25 02:21:49;;;;;;;22.50;10.27;;;;;;;-145.18;100.00;60484.78;5084675;28;20822;-65
2021/08/25 02:24:15;;;;;;;21.43;9.17;;;;;;;-145.18;100.00;60484.78;5073237;28;20039;-65
2021/08/25 02:26:40;;;;;;;24.17;10.20;;;;;;;-145.18;100.00;60484.78;5076950;28;20020;-65
2021/08/25 02:29:06;;;;;;;22.47;10.00;;;;;;;-145.18;100.00;60484.78;5074563;28;20119;-65
2021/08/25 02:31:32;;;;;;;20.13;9.37;;;;;;;-145.18;100.00;60484.78;5081998;28;20369;-65
2021/08/25 02:33:57;;;;;;;20.83;8.93;;;;;;;-145.18;100.00;60484.78;5079982;28;20040;-65
2021/08/25 02:36:23;;;;;;;23.37;10.27;;;;;;;-145.18;100.00;60484.78;5078643;28;20032;-65
2021/08/25 02:38:48;;;;;;;25.53;10.90;;;;;;;-145.18;100.00;60484.78;5073086;28;20089;-65
2021/08/25 02:41:17;;;;;;;23.70;10.00;;;;;;;-145.18;100.00;60484.78;5079453;28;20744;-65
2021/08/25 02:43:43;;;;;;;21.37;8.77;;;;;;;-145.18;100.00;60484.78;5084161;28;20031;-65
2021/08/25 02:46:09;;;;;;;17.90;8.37;;;;;;;-145.18;100.00;60484.78;5082248;28;20040;-65
2021/08/25 02:48:35;;;;;;;19.73;9.60;;;;;;;-145.18;100.00;60484.78;5082911;28;20151;-65
2021/08/25 02:51:01;;;;;;;21.00;9.53;;;;;;;-145.18;100.00;60484.78;5080712;28;20103;-65
2021/08/25 02:53:26;;;;;;;19.50;9.77;;;;;;;-145.18;100.00;60484.78;5082262;28;20012;-65
2021/08/25 02:55:55;;;;;;;20.70;9.83;;;;;;;-145.18;100.00;60484.78;5081192;28;20024;-65
2021/08/25 02:58:21;;;;;;;23.33;10.10;;;;;;;-145.18;100.00;60484.78;5076746;28;20032;-65
2021/08/25 03:00:46;;;;;;;22.47;9.80;;;;;;;-145.18;100.00;60484.78;5081902;28;20043;-65
2021/08/25 03:03:15;;;;;;;19.60;9.07;;;;;;;-145.18;100.00;60484.78;5081428;28;20032;-65
2021/08/25 03:05:40;;;;;;;21.20;9.27;;;;;;;-145.18;100.00;60484.78;5081871;28;20035;-65
2021/08/25 03:08:06;;;;;;;24.90;10.23;;;;;;;-145.18;100.00;60484.78;5076866;28;20028;-65
2021/08/25 03:10:31;;;;;;;24.90;10.10;;;;;;;-145.18;100.00;60484.78;5083869;28;20661;-65
2021/08/25 03:12:57;;;;;;;26.63;10.23;;;;;;;-145.18;100.00;60484.78;5077055;28;20039;-65
2021/08/25 03:15:22;;;;;;;22.00;10.53;;;;;;;-145.18;100.00;60484.78;5080963;28;20036;-65
2021/08/25 03:17:49;;;;;;;22.47;10.20;;;;;;;-145.18;100.00;60484.78;5083594;28;20020;-65
2021/08/25 03:20:14;;;;;;;25.90;10.03;;;;;;;-145.18;100.00;60484.78;5079201;28;20039;-65
2021/08/25 03:22:40;;;;;;;27.03;11.93;;;;;;;-145.18;100.00;60484.78;5082524;28;20028;-65
2021/08/25 03:25:08;;;;;;;23.40;10.67;;;;;;;-145.18;100.00;60484.78;5082029;28;20020;-65
2021/08/25 03:27:34;;;;;;;27.30;11.37;;;;;;;-145.18;100.00;60484.78;5080063;28;20028;-65
2021/08/25 03:30:00;;;;;;;24.50;11.83;;;;;;;-145.18;100.00;60484.78;5073876;28;20020;-65
2021/08/25 03:32:25;;;;;;;33.60;12.57;;;;;;;-145.18;100.00;60484.78;5080765;28;20491;-65
2021/08/25 03:34:51;;;;;;;28.73;11.77;;;;;;;-145.18;100.00;60484.78;5078401;28;20505;-65
2021/08/25 03:37:17;;;;;;;28.37;12.10;;;;;;;-145.18;100.00;60484.78;5072319;28;20020;-65
2021/08/25 03:39:42;;;;;;;21.60;10.83;;;;;;;-145.18;100.00;60484.78;5082085;28;20164;-65
2021/08/25 03:42:09;;;;;;;23.40;9.00;;;;;;;-145.18;100.00;60484.78;5082370;28;20035;-65
2021/08/25 03:44:38;;;;;;;14.73;8.00;;;;;;;-145.18;100.00;60484.78;5078340;28;20051;-65
2021/08/25 03:47:04;;;;;;;27.30;11.33;;;;;;;-145.18;100.00;60484.78;5076829;28;20430;-65
2021/08/25 03:49:30;;;;;;;28.77;12.20;;;;;;;-145.18;100.00;60484.78;5079286;28;20028;-65
2021/08/25 03:51:56;;;;;;;27.80;11.10;;;;;;;-145.18;100.00;60484.78;5083256;28;20028;-65
2021/08/25 03:54:21;;;;;;;26.33;11.53;;;;;;;-145.18;100.00;60484.78;5081452;28;20024;-67
2021/08/25 03:56:47;;;;;;;22.57;10.43;;;;;;;-145.18;100.00;60484.78;5077072;28;20652;-67
2021/08/25 03:59:12;;;;;;;23.27;9.97;;;;;;;-145.18;100.00;60484.78;5082537;28;20028;-67
2021/08/25 04:01:38;;;;;;;24.27;10.87;;;;;;;-145.18;100.00;60484.78;5081793;28;20038;-67
2021/08/25 04:04:07;;;;;;;26.37;11.33;;;;;;;-145.18;100.00;60484.78;5081029;28;20099;-68
2021/08/25 04:06:34;;;;;;;24.67;11.07;;;;;;;-145.18;100.00;60484.78;5076823;28;20032;-67
2021/08/25 04:09:00;;;;;;;22.37;9.80;;;;;;;-145.18;100.00;60484.78;5080639;28;20020;-67
2021/08/25 04:11:25;;;;;;;26.27;9.93;;;;;;;-145.18;100.00;60484.78;5073584;28;20471;-67
2021/08/25 04:13:51;;;;;;;25.23;11.23;;;;;;;-145.18;100.00;60484.78;5081642;28;20530;-67
2021/08/25 04:16:16;;;;;;;26.63;11.70;;;;;;;-145.18;100.00;60484.78;5075870;28;20056;-67
2021/08/25 04:18:42;;;;;;;27.47;11.20;;;;;;;-145.18;100.00;60484.78;5082574;28;20032;-67
2021/08/25 04:21:07;;;;;;;30.90;13.23;;;;;;;-145.18;100.00;60484.78;5081819;28;20050;-67
2021/08/25 04:23:33;;;;;;;27.00;11.70;;;;;;;-145.18;100.00;60484.78;5082625;28;20063;-67
2021/08/25 04:25:58;;;;;;;25.87;11.80;;;;;;;-145.18;100.00;60484.78;5078023;28;20056;-67
2021/08/25 04:28:25;;;;;;;26.60;11.70;;;;;;;-145.18;100.00;60484.78;5079493;28;20043;-67
2021/08/25 04:30:51;;;;;;;28.90;12.23;;;;;;;-145.18;100.00;60484.78;5080213;28;20388;-67
2021/08/25 04:33:17;;;;;;;29.27;12.57;;;;;;;-145.18;100.00;60484.78;5078894;28;20028;-67
2021/08/25 04:35:43;;;;;;;27.50;12.03;;;;;;;-145.18;100.00;60484.78;5075833;28;20020;-67
2021/08/25 04:38:08;;;;;;;32.57;12.27;;;;;;;-145.18;100.00;60484.78;5080588;28;20047;-67
2021/08/25 04:40:34;;;;;;;30.33;12.63;;;;;;;-145.18;100.00;60484.78;5081688;28;20148;-67
2021/08/25 04:43:00;;;;;;;29.30;12.20;;;;;;;-145.18;100.00;60484.78;5078345;28;20032;-67
2021/08/25 04:45:26;;;;;;;39.73;13.30;;;;;;;-145.18;100.00;60484.78;5076507;28;20031;-67
2021/08/25 04:47:52;;;;;;;24.93;11.17;;;;;;;-145.18;100.00;60484.78;5079910;28;20039;-67
2021/08/25 04:50:17;;;;;;;26.97;12.50;;;;;;;-145.18;100.00;60484.78;5081836;28;20039;-67
2021/08/25 04:52:43;;;;;;;29.87;11.60;;;;;;;-145.18;100.00;60484.78;5079922;28;20039;-67
2021/08/25 04:55:09;;;;;;;26.60;11.33;;;;;;;-145.18;100.00;60484.78;5080656;28;20103;-67
2021/08/25 04:57:34;;;;;;;25.93;12.17;;;;;;;-145.18;100.00;60484.78;5079364;28;20028;-67
2021/08/25 05:00:00;;;;;;;34.47;12.13;;;;;;;-145.18;100.00;60484.78;5078581;28;20023;-67
2021/08/25 05:02:25;;;;;;;28.10;12.23;;;;;;;-145.18;100.00;60484.78;5081816;28;20504;-67
2021/08/25 05:04:51;;;;;;;25.40;12.20;;;;;;;-145.18;100.00;60484.78;5072290;28;20078;-67
2021/08/25 05:07:16;;;;;;;28.20;12.27;;;;;;;-145.18;100.00;60484.78;5080938;28;20078;-67
2021/08/25 05:09:42;;;;;;;28.53;11.63;;;;;;;-145.18;100.00;60484.78;5077515;28;20020;-67
2021/08/25 05:12:07;;;;;;;25.63;12.80;;;;;;;-145.18;100.00;60484.78;5082327;28;20096;-67
2021/08/25 05:14:34;;;;;;;23.43;13.00;;;;;;;-145.18;100.00;60484.78;5080306;28;20034;-67
2021/08/25 05:17:01;;;;;;;27.23;11.90;;;;;;;-145.18;100.00;60484.78;5076643;28;20161;-67
2021/08/25 05:19:26;;;;;;;25.93;11.53;;;;;;;-145.18;100.00;60484.78;5070350;28;20024;-67
2021/08/25 05:21:52;;;;;;;24.23;11.90;;;;;;;-145.18;100.00;60484.78;5070593;28;20050;-67
2021/08/25 05:24:17;;;;;;;24.13;10.60;;;;;;;-145.18;100.00;60484.78;5077295;28;20684;-67
2021/08/25 05:26:43;;;;;;;21.83;10.50;;;;;;;-145.18;100.00;60484.78;5073011;28;20031;-67
2021/08/25 05:29:08;;;;;;;25.23;10.33;;;;;;;-145.18;100.00;60484.78;5077317;28;20063;-67
2021/08/25 05:31:34;;;;;;;20.87;11.20;;;;;;;-145.18;100.00;60484.78;5069230;28;20079;-67
2021/08/25 05:33:59;;;;;;;19.90;9.90;;;;;;;-145.18;100.00;60484.78;5076873;28;20442;-67
2021/08/25 05:36:25;;;;;;;20.43;9.77;;;;;;;-145.18;100.00;60484.78;5073446;28;20024;-68
2021/08/25 05:38:51;;;;;;;15.80;8.80;;;;;;;-145.18;100.00;60484.78;5072622;28;20024;-67
2021/08/25 05:41:16;;;;;;;21.03;8.97;;;;;;;-145.18;100.00;60484.78;5065507;28;20504;-67
2021/08/25 05:43:42;;;;;;;20.33;9.17;;;;;;;-145.18;100.00;60484.78;5080587;28;20048;-67
2021/08/25 05:46:08;;;;;;;17.73;9.90;;;;;;;-145.18;100.00;60484.78;5071650;28;20090;-67
2021/08/25 05:48:33;;;;;;;20.13;9.87;;;;;;;-145.18;100.00;60484.78;5075432;28;20054;-67
2021/08/25 05:50:59;;;;;;;18.50;8.57;;;;;;;-145.18;100.00;60484.78;5081733;28;20028;-67
2021/08/25 05:53:25;;;;;;;20.40;8.80;;;;;;;-145.18;100.00;60484.78;5081833;28;20059;-67
2021/08/25 05:55:50;;;;;;;18.30;9.30;;;;;;;-145.18;100.00;60484.78;5081690;28;20081;-67
2021/08/25 05:58:16;;;;;;;17.03;8.77;;;;;;;-145.18;100.00;60484.78;5081554;28;20024;-67
2021/08/25 06:00:42;;;;;;;19.07;8.47;;;;;;;-145.18;100.00;60484.78;5084572;28;20024;-67
2021/08/25 06:03:07;;;;;;;17.37;8.17;;;;;;;-145.18;100.00;60484.78;5085164;28;20528;-67
2021/08/25 06:05:33;;;;;;;20.70;8.30;;;;;;;-145.18;100.00;60484.78;5085088;28;20032;-67
2021/08/25 06:07:58;;;;;;;19.17;8.93;;;;;;;-145.18;100.00;60484.78;5084951;28;20035;-67
2021/08/25 06:10:24;;;;;;;19.20;8.30;;;;;;;-145.18;100.00;60484.78;5085467;28;20469;-67
2021/08/25 06:12:49;;;;;;;16.87;8.30;;;;;;;-145.18;100.00;60484.78;5085275;28;20032;-67
2021/08/25 06:15:15;;;;;;;14.87;7.03;;;;;;;-145.18;100.00;60484.78;5084318;28;20028;-67
2021/08/25 06:17:40;;;;;;;17.70;6.80;;;;;;;-145.18;100.00;60484.78;5082002;28;20487;-67
2021/08/25 06:20:07;;;;;;;14.53;6.90;;;;;;;-145.18;100.00;60484.78;5084618;28;20057;-67
2021/08/25 06:22:32;;;;;;;16.43;7.30;;;;;;;-145.18;100.00;60484.78;5084914;28;20028;-67
2021/08/25 06:24:58;;;;;;;16.43;6.90;;;;;;;-145.18;100.00;60484.78;5084732;28;20592;-67
2021/08/25 06:27:24;;;;;;;12.67;6.10;;;;;;;-145.18;100.00;60484.78;5085007;28;20024;-67
2021/08/25 06:29:50;;;;;;;17.23;6.27;;;;;;;-145.18;100.00;60484.78;5084663;28;20032;-67
2021/08/25 06:32:16;;;;;;;15.43;6.50;;;;;;;-145.18;100.00;60484.78;5084848;28;20020;-67
2021/08/25 06:34:41;;;;;;;12.07;5.57;;;;;;;-145.18;100.00;60484.78;5084559;28;20030;-67
2021/08/25 06:37:07;;;;;;;10.93;4.90;;;;;;;-145.18;100.00;60484.78;5084718;28;20027;-67
2021/08/25 06:39:34;;;;;;;8.80;4.07;;;;;;;-145.18;100.00;60484.78;5084460;28;20028;-67
2021/08/25 06:41:59;;;;;;;7.43;3.90;;;;;;;-145.18;100.00;60484.78;5083978;28;20115;-67
2021/08/25 06:44:25;;;;;;;7.50;3.40;;;;;;;-145.18;100.00;60484.78;5084519;28;20111;-67
2021/08/25 06:46:51;;;;;;;9.70;4.40;;;;;;;-145.18;100.00;60484.78;5084269;28;20491;-67
2021/08/25 06:49:16;;;;;;;8.67;4.10;;;;;;;-145.18;100.00;60484.78;5084035;28;20092;-67
2021/08/25 06:51:42;;;;;;;9.10;3.87;;;;;;;-145.18;100.00;60484.78;5084299;28;20047;-67
2021/08/25 06:54:08;;;;;;;6.67;3.33;;;;;;;-145.18;100.00;60484.78;5084305;28;20196;-67
2021/08/25 06:56:36;;;;;;;7.50;3.30;;;;;;;-145.18;100.00;60484.78;5084317;28;20020;-67
2021/08/25 06:59:02;;;;;;;6.90;3.17;;;;;;;-145.18;100.00;60484.78;5084561;28;20047;-67
2021/08/25 07:01:27;;;;;;;7.20;2.97;;;;;;;-145.18;100.00;60484.78;5083820;28;20415;-67
2021/08/25 07:03:56;;;;;;;5.50;2.67;;;;;;;-145.18;100.00;60484.78;5084244;28;20032;-67
2021/08/25 07:06:22;;;;;;;5.33;2.60;;;;;;;-145.18;100.00;60484.78;5084055;28;20638;-67
2021/08/25 07:08:47;;;;;;;6.23;2.90;;;;;;;-145.18;100.00;60484.78;5084029;28;20031;-67
2021/08/25 07:11:13;;;;;;;6.47;2.70;;;;;;;-145.18;100.00;60484.78;5083089;28;20482;-67
2021/08/25 07:13:39;;;;;;;9.60;2.80;;;;;;;-145.18;100.00;60484.78;5084067;28;20412;-67
2021/08/25 07:16:07;;;;;;;6.13;3.07;;;;;;;-145.18;100.00;60484.78;5083492;28;20420;-67
2021/08/25 07:18:32;;;;;;;7.07;3.07;;;;;;;-145.18;100.00;60484.78;5083864;28;20031;-67
2021/08/25 07:20:58;;;;;;;8.23;3.70;;;;;;;-145.18;100.00;60484.78;5083678;28;20035;-67
2021/08/25 07:23:24;;;;;;;7.67;3.50;;;;;;;-145.18;100.00;60484.78;5083980;28;20064;-67
2021/08/25 07:25:49;;;;;;;8.30;3.60;;;;;;;-145.18;100.00;60484.78;5083528;28;20024;-67
2021/08/25 07:28:15;;;;;;;8.33;4.00;;;;;;;-145.18;100.00;60484.78;5083673;28;20428;-67
2021/08/25 07:30:40;;;;;;;10.53;4.50;;;;;;;-145.18;100.00;60484.78;5083314;28;20063;-67
2021/08/25 07:33:11;;;;;;;9.17;4.60;;;;;;;-145.18;100.00;60484.78;5083502;28;20032;-65
2021/08/25 07:35:37;;;;;;;13.03;4.80;;;;;;;-145.18;100.00;60484.78;5083549;28;20388;-65
2021/08/25 07:38:02;;;;;;;8.53;4.10;;;;;;;-145.18;100.00;60484.78;5083523;28;20274;-65
2021/08/25 07:40:28;;;;;;;11.90;5.70;;;;;;;-145.18;100.00;60484.78;5083680;28;20512;-65
2021/08/25 07:42:53;;;;;;;10.60;5.30;;;;;;;-145.18;100.00;60484.78;5083624;28;20474;-67
2021/08/25 07:45:19;;;;;;;10.88;4.90;;;;;;;-145.18;100.00;60484.78;5083134;28;20020;-68
2021/08/25 07:47:46;;;;;;;11.90;4.85;;;;;;;-145.18;100.00;60484.78;5083096;28;20040;-69
2021/08/25 07:50:12;;;;;;;8.63;4.35;;;;;;;-145.18;100.00;60484.78;5083316;28;20035;-69
2021/08/25 07:52:37;;;;;;;10.82;4.28;;;;;;;-145.18;100.00;60484.78;5082735;28;20024;-68
2021/08/25 07:55:03;;;;;;;10.93;4.78;;;;;;;-145.18;100.00;60484.78;5083018;28;20034;-69
2021/08/25 07:57:28;;;;;;;10.43;4.00;;;;;;;-145.18;100.00;60484.78;5083191;28;20133;-70
2021/08/25 07:59:54;;;;;;;5.90;3.60;;;;;;;-145.18;100.00;60484.78;5083101;28;20039;-70
2021/08/25 08:02:20;;;;;;;7.82;3.67;;;;;;;-145.18;100.00;60484.78;5082805;28;20024;-68
2021/08/25 08:04:46;;;;;;;7.38;3.80;;;;;;;-145.18;100.00;60484.78;5082581;28;20027;-67
2021/08/25 08:07:11;;;;;;;7.43;3.85;;;;;;;-145.18;100.00;60484.78;5082905;28;20025;-69
2021/08/25 08:09:37;;;;;;;6.00;3.83;;;;;;;-145.18;100.00;60484.78;5082866;28;20028;-69
2021/08/25 08:12:03;;;;;;;7.68;4.10;;;;;;;-145.18;100.00;60484.78;5082582;28;20031;-68
2021/08/25 08:14:29;;;;;;;7.53;4.00;;;;;;;-145.18;100.00;60484.78;5082482;28;20031;-68
2021/08/25 08:16:59;;;;;;;8.45;4.10;;;;;;;-145.18;100.00;60484.78;5082400;28;20048;-68
2021/08/25 08:19:29;;;;;;;6.07;3.75;;;;;;;-145.18;100.00;60484.78;5082780;28;20107;-69
2021/08/25 08:21:55;;;;;;;9.07;3.45;;;;;;;-145.18;100.00;60484.78;5068957;28;20473;-70
2021/08/25 08:24:21;;;;;;;6.53;3.30;;;;;;;-145.18;100.00;60484.78;5082207;28;20034;-68
2021/08/25 08:26:47;;;;;;;7.72;3.72;;;;;;;-145.18;100.00;60484.78;5082396;28;20058;-68
2021/08/25 08:29:13;;;;;;;5.45;2.92;;;;;;;-145.18;100.00;60484.78;5082758;28;20051;-69
2021/08/25 08:31:38;;;;;;;6.40;2.67;;;;;;;-145.18;100.00;60484.78;5082431;28;20515;-69
2021/08/25 08:34:04;;;;;;;4.82;2.53;;;;;;;-145.18;100.00;60484.78;5082002;28;20027;-70
2021/08/25 08:36:30;;;;;;;4.97;2.70;;;;;;;-145.18;100.00;60484.78;5082397;28;20492;-69
2021/08/25 08:38:55;;;;;;;6.90;2.92;;;;;;;-145.18;100.00;60484.78;5082554;28;20438;-69
2021/08/25 08:41:20;;;;;;;7.03;2.85;;;;;;;-145.18;100.00;60484.78;5082083;28;20414;-70
2021/08/25 08:43:49;;;;;;;5.63;2.90;;;;;;;-145.18;100.00;60484.78;5082324;28;20028;-70
2021/08/25 08:46:16;;;;;;;6.25;2.70;;;;;;;-145.18;100.00;60484.78;5082122;28;20097;-69
2021/08/25 08:48:42;;;;;;;7.50;2.85;;;;;;;-145.18;100.00;60484.78;5082154;28;20020;-69
2021/08/25 08:51:14;;;;;;;4.80;2.78;;;;;;;-145.18;100.00;60484.78;5082359;28;20032;-69
2021/08/25 08:53:40;;;;;;;5.80;2.75;;;;;;;-145.18;100.00;60484.78;5082083;28;20024;-67
2021/08/25 08:56:06;;;;;;;7.80;3.20;;;;;;;-145.18;100.00;60484.78;5082093;28;20735;-67
2021/08/25 08:58:32;;;;;;;5.25;3.17;;;;;;;-145.18;100.00;60484.78;5082377;28;20024;-67
2021/08/25 09:00:58;;;;;;;8.02;3.90;;;;;;;-145.18;100.00;60484.78;5082218;28;20034;-68
2021/08/25 09:03:26;;;;;;;6.57;3.25;;;;;;;-145.18;100.00;60484.78;5081798;28;20034;-68
2021/08/25 09:06:00;;;;;;;7.05;2.90;;;;;;;-145.18;100.00;60484.78;5081921;28;20492;-69
2021/08/25 09:08:27;;;;;;;8.98;3.22;;;;;;;-145.18;100.00;60484.78;5082386;28;20095;-68
2021/08/25 09:11:01;;;;;;;6.10;2.70;;;;;;;-145.18;100.00;60484.78;5082288;28;20030;-67
2021/08/25 09:13:48;;;;;;;6.97;2.53;;;;;;;-145.18;100.00;60484.78;5082429;28;20124;-68
2021/08/25 09:16:31;;;;;;;7.45;2.90;;;;;;;-145.18;100.00;60484.78;5081667;28;20051;-69
2021/08/25 09:19:17;;;;;;;5.10;2.40;;;;;;;-145.18;100.00;60484.78;5081940;28;20077;-68
2021/08/25 09:22:00;;;;;;;5.60;2.75;;;;;;;-145.18;100.00;60484.78;5082050;28;20028;-68
2021/08/25 09:24:39;;;;;;;7.05;2.72;;;;;;;-145.18;100.00;60484.78;5081547;28;20092;-67
2021/08/25 09:27:11;;;;;;;5.68;2.70;;;;;;;-145.18;100.00;60484.78;5081786;28;20032;-66
2021/08/25 09:29:38;;;;;;;7.65;3.28;;;;;;;-145.18;100.00;60484.78;5082115;28;20111;-66
2021/08/25 09:32:19;;;;;;;10.38;3.15;;;;;;;-145.18;100.00;60484.78;5082123;28;20472;-66
2021/08/25 09:34:45;;;;;;;7.63;3.00;;;;;;;-145.18;100.00;60484.78;5083285;28;20050;-67
2021/08/25 09:37:17;;;;;;;5.82;2.47;;;;;;;-145.18;100.00;60484.78;5085987;28;20612;-68
2021/08/25 09:39:54;;;;;;;5.28;2.15;;;;;;;-145.18;100.00;60484.78;5085876;28;20107;-67
2021/08/25 09:42:21;;;;;;;5.38;2.60;;;;;;;-145.18;100.00;60484.78;5085598;28;20034;-67
2021/08/25 09:45:00;;;;;;;6.43;2.58;;;;;;;-145.18;100.00;60484.78;5085545;28;20792;-67
2021/08/25 09:47:54;;;;;;;6.68;2.92;;;;;;;-145.18;100.00;60484.78;5085544;28;20024;-66
2021/08/25 09:50:22;;;;;;;6.40;2.92;;;;;;;-145.18;100.00;60484.78;5085913;28;20049;-67
2021/08/25 09:52:48;;;;;;;5.10;2.50;;;;;;;-145.18;100.00;60484.78;5085664;28;20039;-69
2021/08/25 09:55:14;;;;;;;8.10;2.80;;;;;;;-145.18;100.00;60484.78;5085273;28;20028;-69
2021/08/25 09:57:42;;;;;;;5.22;2.38;;;;;;;-145.18;100.00;60484.78;5085556;28;20039;-68
2021/08/25 10:00:10;;;;;;;6.30;2.63;;;;;;;-145.18;100.00;60484.78;5085608;28;20103;-69
2021/08/25 10:02:36;;;;;;;5.38;2.60;;;;;;;-145.18;100.00;60484.78;5085007;28;20028;-68
2021/08/25 10:05:03;;;;;;;4.97;2.03;;;;;;;-145.18;100.00;60484.78;5085191;28;20089;-69
2021/08/25 10:07:28;;;;;;;4.60;2.13;;;;;;;-145.18;100.00;60484.78;5084805;28;20016;-67
2021/08/25 10:09:54;;;;;;;5.15;2.30;;;;;;;-145.18;100.00;60484.78;5085642;28;20019;-67
2021/08/25 10:12:20;;;;;;;4.95;2.35;;;;;;;-145.18;100.00;60484.78;5086319;28;20408;-67
2021/08/25 10:14:46;;;;;;;5.20;2.63;;;;;;;-145.18;100.00;60484.78;5085077;28;20025;-67
2021/08/25 10:17:41;;;;;;;6.38;2.20;;;;;;;-145.18;100.00;60484.78;5084329;28;20505;-68
2021/08/25 10:20:45;;;;;;;6.00;2.45;;;;;;;-145.18;100.00;60484.78;5084591;28;20023;-68
2021/08/25 10:23:10;;;;;;;4.18;1.90;;;;;;;-145.18;100.00;60484.78;5002414;28;20040;-69
2021/08/25 10:26:09;;;;;;;5.22;2.20;;;;;;;-145.18;100.00;60484.78;5001965;28;20030;-68
2021/08/25 10:29:19;;;;;;;4.57;1.77;;;;;;;-145.18;100.00;60484.78;5002086;28;20045;-68
2021/08/25 10:32:11;;;;;;;4.78;2.08;;;;;;;-145.18;100.00;60484.78;5000179;28;20038;-67
2021/08/25 10:34:40;;;;;;;4.32;2.10;;;;;;;-145.18;100.00;60484.78;5000088;28;20183;-66
2021/08/25 10:37:32;;;;;;;4.80;1.92;;;;;;;-145.18;100.00;60484.78;5001646;28;20036;-66
2021/08/25 10:40:00;;;;;;;6.38;2.30;;;;;;;-145.18;100.00;60484.78;4999703;28;20034;-66
2021/08/25 10:43:02;;;;;;;5.00;1.90;;;;;;;-145.18;100.00;60484.78;5002187;28;20033;-65
2021/08/25 10:45:55;;;;;;;6.68;2.53;;;;;;;-145.18;100.00;60484.78;4962423;28;20121;-66
2021/08/25 10:48:38;;;;;;;4.65;1.73;;;;;;;-145.18;100.00;60484.78;4969822;28;20102;-66
2021/08/25 10:51:03;;;;;;;4.10;2.00;;;;;;;-145.18;100.00;60484.78;4966903;28;20069;-66
2021/08/25 10:53:38;;;;;;;4.82;2.00;;;;;;;-145.18;100.00;60484.78;4973981;28;20034;-66
2021/08/25 10:56:28;;;;;;;4.78;2.00;;;;;;;-145.18;100.00;60484.78;5001163;28;20069;-66
2021/08/25 10:59:02;;;;;;;3.45;1.60;;;;;;;-145.18;100.00;60484.78;4998798;28;20117;-66
2021/08/25 11:01:41;;;;;;;3.65;1.58;;;;;;;-145.18;100.00;60484.78;4997771;28;20065;-66
2021/08/25 11:04:21;;;;;;;3.50;1.40;;;;;;;-145.18;100.00;60484.78;5000589;28;20034;-65
2021/08/25 11:07:08;;;;;;;3.42;1.52;;;;;;;-145.18;100.00;60484.78;5000112;28;20237;-66